sensor_id;sensor_type;location;lat;lon;timestamp;P1;durP1;ratioP1;P2;durP2;ratioP2
64157;SDS011;50449;51.528;5.076;2022-10-17T00:00:40;30.80;;;28.90;;
64157;SDS011;50449;51.528;5.076;2022-10-17T00:03:06;32.30;;;30.15;;
64157;SDS011;50449;51.528;5.076;2022-10-17T00:05:31;31.88;;;29.98;;
64157;SDS011;50449;51.528;5.076;2022-10-17T00:07:57;31.48;;;29.50;;
64157;SDS011;50449;51.528;5.076;2022-10-17T00:10:22;29.17;;;27.50;;
64157;SDS011;50449;51.528;5.076;2022-10-17T00:12:49;32.10;;;30.13;;
64157;SDS011;50449;51.528;5.076;2022-10-17T00:15:16;31.38;;;29.27;;
64157;SDS011;50449;51.528;5.076;2022-10-17T00:17:43;31.03;;;29.17;;
64157;SDS011;50449;51.528;5.076;2022-10-17T00:20:09;31.33;;;29.23;;
64157;SDS011;50449;51.528;5.076;2022-10-17T00:22:35;31.58;;;29.65;;
64157;SDS011;50449;51.528;5.076;2022-10-17T00:25:00;29.70;;;27.50;;
64157;SDS011;50449;51.528;5.076;2022-10-17T00:27:26;31.27;;;29.40;;
64157;SDS011;50449;51.528;5.076;2022-10-17T00:29:51;31.30;;;29.27;;
64157;SDS011;50449;51.528;5.076;2022-10-17T00:32:17;30.98;;;29.02;;
64157;SDS011;50449;51.528;5.076;2022-10-17T00:34:43;31.73;;;29.83;;
64157;SDS011;50449;51.528;5.076;2022-10-17T00:37:09;31.02;;;29.27;;
64157;SDS011;50449;51.528;5.076;2022-10-17T00:39:35;31.60;;;29.58;;
64157;SDS011;50449;51.528;5.076;2022-10-17T00:42:00;31.60;;;29.65;;
64157;SDS011;50449;51.528;5.076;2022-10-17T00:46:57;29.42;;;27.65;;
64157;SDS011;50449;51.528;5.076;2022-10-17T00:49:26;31.35;;;29.45;;
64157;SDS011;50449;51.528;5.076;2022-10-17T00:52:03;30.65;;;28.73;;
64157;SDS011;50449;51.528;5.076;2022-10-17T00:54:33;30.92;;;29.02;;
64157;SDS011;50449;51.528;5.076;2022-10-17T00:57:03;30.50;;;28.80;;
64157;SDS011;50449;51.528;5.076;2022-10-17T00:59:29;30.05;;;27.92;;
64157;SDS011;50449;51.528;5.076;2022-10-17T01:02:02;29.15;;;27.40;;
64157;SDS011;50449;51.528;5.076;2022-10-17T01:04:30;32.58;;;30.02;;
64157;SDS011;50449;51.528;5.076;2022-10-17T01:06:56;31.67;;;29.67;;
64157;SDS011;50449;51.528;5.076;2022-10-17T01:09:21;30.35;;;28.40;;
64157;SDS011;50449;51.528;5.076;2022-10-17T01:25:51;34.05;;;30.88;;
64157;SDS011;50449;51.528;5.076;2022-10-17T01:28:28;30.88;;;28.67;;
64157;SDS011;50449;51.528;5.076;2022-10-17T01:31:11;30.75;;;28.75;;
64157;SDS011;50449;51.528;5.076;2022-10-17T01:39:11;30.45;;;28.58;;
64157;SDS011;50449;51.528;5.076;2022-10-17T01:47:07;30.23;;;28.05;;
64157;SDS011;50449;51.528;5.076;2022-10-17T01:49:36;30.42;;;28.63;;
64157;SDS011;50449;51.528;5.076;2022-10-17T01:52:09;30.90;;;29.00;;
64157;SDS011;50449;51.528;5.076;2022-10-17T02:00:03;32.00;;;30.08;;
64157;SDS011;50449;51.528;5.076;2022-10-17T02:02:32;32.20;;;30.13;;
64157;SDS011;50449;51.528;5.076;2022-10-17T02:05:00;31.08;;;29.08;;
64157;SDS011;50449;51.528;5.076;2022-10-17T02:07:26;31.90;;;29.85;;
64157;SDS011;50449;51.528;5.076;2022-10-17T02:09:51;32.38;;;30.38;;
64157;SDS011;50449;51.528;5.076;2022-10-17T02:18:04;33.92;;;31.33;;
64157;SDS011;50449;51.528;5.076;2022-10-17T02:20:43;31.45;;;29.50;;
64157;SDS011;50449;51.528;5.076;2022-10-17T02:23:23;31.40;;;29.55;;
64157;SDS011;50449;51.528;5.076;2022-10-17T02:26:10;31.88;;;29.80;;
64157;SDS011;50449;51.528;5.076;2022-10-17T02:31:21;30.92;;;28.85;;
64157;SDS011;50449;51.528;5.076;2022-10-17T02:34:00;33.15;;;31.00;;
64157;SDS011;50449;51.528;5.076;2022-10-17T02:36:29;33.20;;;30.38;;
64157;SDS011;50449;51.528;5.076;2022-10-17T02:39:00;33.72;;;31.27;;
64157;SDS011;50449;51.528;5.076;2022-10-17T02:41:28;31.85;;;29.33;;
64157;SDS011;50449;51.528;5.076;2022-10-17T02:43:55;32.22;;;29.70;;
64157;SDS011;50449;51.528;5.076;2022-10-17T02:46:22;32.78;;;30.52;;
64157;SDS011;50449;51.528;5.076;2022-10-17T02:48:52;32.08;;;29.98;;
64157;SDS011;50449;51.528;5.076;2022-10-17T02:51:30;31.20;;;29.25;;
64157;SDS011;50449;51.528;5.076;2022-10-17T02:56:29;30.10;;;28.30;;
64157;SDS011;50449;51.528;5.076;2022-10-17T02:59:00;35.10;;;32.60;;
64157;SDS011;50449;51.528;5.076;2022-10-17T03:01:27;32.67;;;30.55;;
64157;SDS011;50449;51.528;5.076;2022-10-17T03:04:07;32.78;;;30.25;;
64157;SDS011;50449;51.528;5.076;2022-10-17T03:06:34;30.77;;;28.58;;
64157;SDS011;50449;51.528;5.076;2022-10-17T03:08:59;33.28;;;30.83;;
64157;SDS011;50449;51.528;5.076;2022-10-17T03:11:25;30.55;;;28.75;;
64157;SDS011;50449;51.528;5.076;2022-10-17T03:13:50;30.63;;;28.42;;
64157;SDS011;50449;51.528;5.076;2022-10-17T03:16:16;32.20;;;30.02;;
64157;SDS011;50449;51.528;5.076;2022-10-17T03:18:41;31.50;;;29.67;;
64157;SDS011;50449;51.528;5.076;2022-10-17T03:21:06;31.50;;;29.30;;
64157;SDS011;50449;51.528;5.076;2022-10-17T03:23:32;32.80;;;30.63;;
64157;SDS011;50449;51.528;5.076;2022-10-17T03:25:57;32.22;;;30.00;;
64157;SDS011;50449;51.528;5.076;2022-10-17T03:28:22;29.77;;;27.67;;
64157;SDS011;50449;51.528;5.076;2022-10-17T03:30:48;32.55;;;30.17;;
64157;SDS011;50449;51.528;5.076;2022-10-17T03:33:13;31.00;;;28.75;;
64157;SDS011;50449;51.528;5.076;2022-10-17T03:35:39;30.63;;;28.63;;
64157;SDS011;50449;51.528;5.076;2022-10-17T03:38:04;31.40;;;29.17;;
64157;SDS011;50449;51.528;5.076;2022-10-17T03:40:30;31.48;;;29.33;;
64157;SDS011;50449;51.528;5.076;2022-10-17T03:42:55;34.92;;;32.50;;
64157;SDS011;50449;51.528;5.076;2022-10-17T03:45:21;30.90;;;28.90;;
64157;SDS011;50449;51.528;5.076;2022-10-17T03:47:46;31.58;;;29.08;;
64157;SDS011;50449;51.528;5.076;2022-10-17T03:50:11;31.30;;;29.10;;
64157;SDS011;50449;51.528;5.076;2022-10-17T03:52:37;31.08;;;29.10;;
64157;SDS011;50449;51.528;5.076;2022-10-17T03:55:02;34.63;;;32.03;;
64157;SDS011;50449;51.528;5.076;2022-10-17T03:57:27;33.03;;;31.02;;
64157;SDS011;50449;51.528;5.076;2022-10-17T03:59:53;31.80;;;29.52;;
64157;SDS011;50449;51.528;5.076;2022-10-17T04:02:18;34.55;;;31.33;;
64157;SDS011;50449;51.528;5.076;2022-10-17T04:04:43;31.42;;;28.95;;
64157;SDS011;50449;51.528;5.076;2022-10-17T04:07:09;31.45;;;29.33;;
64157;SDS011;50449;51.528;5.076;2022-10-17T04:09:34;32.10;;;30.00;;
64157;SDS011;50449;51.528;5.076;2022-10-17T04:12:00;32.78;;;30.27;;
64157;SDS011;50449;51.528;5.076;2022-10-17T04:14:25;30.95;;;29.02;;
64157;SDS011;50449;51.528;5.076;2022-10-17T04:16:50;32.75;;;30.50;;
64157;SDS011;50449;51.528;5.076;2022-10-17T04:19:17;30.98;;;28.98;;
64157;SDS011;50449;51.528;5.076;2022-10-17T04:21:42;31.50;;;29.50;;
64157;SDS011;50449;51.528;5.076;2022-10-17T04:24:09;32.88;;;30.58;;
64157;SDS011;50449;51.528;5.076;2022-10-17T04:26:35;30.15;;;28.33;;
64157;SDS011;50449;51.528;5.076;2022-10-17T04:29:01;34.05;;;31.55;;
64157;SDS011;50449;51.528;5.076;2022-10-17T04:31:26;33.45;;;30.85;;
64157;SDS011;50449;51.528;5.076;2022-10-17T04:33:51;31.80;;;29.63;;
64157;SDS011;50449;51.528;5.076;2022-10-17T04:36:18;32.65;;;30.30;;
64157;SDS011;50449;51.528;5.076;2022-10-17T04:38:44;33.20;;;31.08;;
64157;SDS011;50449;51.528;5.076;2022-10-17T04:41:10;32.08;;;29.98;;
64157;SDS011;50449;51.528;5.076;2022-10-17T04:43:37;32.25;;;29.60;;
64157;SDS011;50449;51.528;5.076;2022-10-17T04:46:06;32.65;;;30.55;;
64157;SDS011;50449;51.528;5.076;2022-10-17T04:48:33;31.77;;;29.20;;
64157;SDS011;50449;51.528;5.076;2022-10-17T04:51:00;32.28;;;30.13;;
64157;SDS011;50449;51.528;5.076;2022-10-17T04:53:27;33.17;;;30.88;;
64157;SDS011;50449;51.528;5.076;2022-10-17T04:55:56;32.72;;;30.42;;
64157;SDS011;50449;51.528;5.076;2022-10-17T04:58:21;31.40;;;29.35;;
64157;SDS011;50449;51.528;5.076;2022-10-17T05:00:46;32.20;;;30.00;;
64157;SDS011;50449;51.528;5.076;2022-10-17T05:03:12;33.00;;;30.70;;
64157;SDS011;50449;51.528;5.076;2022-10-17T05:05:38;30.88;;;29.05;;
64157;SDS011;50449;51.528;5.076;2022-10-17T05:08:05;31.20;;;29.10;;
64157;SDS011;50449;51.528;5.076;2022-10-17T05:10:35;28.83;;;27.17;;
64157;SDS011;50449;51.528;5.076;2022-10-17T05:13:04;32.15;;;30.02;;
64157;SDS011;50449;51.528;5.076;2022-10-17T05:15:30;31.40;;;29.15;;
64157;SDS011;50449;51.528;5.076;2022-10-17T05:17:56;31.08;;;29.23;;
64157;SDS011;50449;51.528;5.076;2022-10-17T05:20:22;32.45;;;30.15;;
64157;SDS011;50449;51.528;5.076;2022-10-17T05:22:48;33.05;;;30.75;;
64157;SDS011;50449;51.528;5.076;2022-10-17T05:25:13;32.90;;;30.88;;
64157;SDS011;50449;51.528;5.076;2022-10-17T05:27:39;30.98;;;28.92;;
64157;SDS011;50449;51.528;5.076;2022-10-17T05:30:04;29.98;;;28.08;;
64157;SDS011;50449;51.528;5.076;2022-10-17T05:32:30;31.65;;;29.33;;
64157;SDS011;50449;51.528;5.076;2022-10-17T05:34:56;31.83;;;29.55;;
64157;SDS011;50449;51.528;5.076;2022-10-17T05:37:21;31.10;;;29.00;;
64157;SDS011;50449;51.528;5.076;2022-10-17T05:39:46;30.60;;;28.60;;
64157;SDS011;50449;51.528;5.076;2022-10-17T05:42:12;33.22;;;30.35;;
64157;SDS011;50449;51.528;5.076;2022-10-17T05:44:37;29.88;;;28.05;;
64157;SDS011;50449;51.528;5.076;2022-10-17T05:47:03;31.98;;;29.83;;
64157;SDS011;50449;51.528;5.076;2022-10-17T05:49:29;30.92;;;28.65;;
64157;SDS011;50449;51.528;5.076;2022-10-17T05:51:54;31.38;;;29.38;;
64157;SDS011;50449;51.528;5.076;2022-10-17T05:54:19;30.60;;;28.70;;
64157;SDS011;50449;51.528;5.076;2022-10-17T05:56:45;32.70;;;29.60;;
64157;SDS011;50449;51.528;5.076;2022-10-17T05:59:15;30.90;;;29.00;;
64157;SDS011;50449;51.528;5.076;2022-10-17T06:01:40;30.88;;;29.05;;
64157;SDS011;50449;51.528;5.076;2022-10-17T06:04:05;29.73;;;28.08;;
64157;SDS011;50449;51.528;5.076;2022-10-17T06:06:31;30.85;;;29.10;;
64157;SDS011;50449;51.528;5.076;2022-10-17T06:08:56;32.10;;;29.70;;
64157;SDS011;50449;51.528;5.076;2022-10-17T06:11:21;31.73;;;29.58;;
64157;SDS011;50449;51.528;5.076;2022-10-17T06:13:47;31.02;;;29.17;;
64157;SDS011;50449;51.528;5.076;2022-10-17T06:16:12;33.22;;;30.45;;
64157;SDS011;50449;51.528;5.076;2022-10-17T06:18:37;31.40;;;29.40;;
64157;SDS011;50449;51.528;5.076;2022-10-17T06:21:04;30.25;;;27.95;;
64157;SDS011;50449;51.528;5.076;2022-10-17T06:23:32;29.77;;;27.88;;
64157;SDS011;50449;51.528;5.076;2022-10-17T06:25:58;30.00;;;27.92;;
64157;SDS011;50449;51.528;5.076;2022-10-17T06:28:25;30.42;;;28.23;;
64157;SDS011;50449;51.528;5.076;2022-10-17T06:30:50;29.52;;;27.67;;
64157;SDS011;50449;51.528;5.076;2022-10-17T06:33:16;31.85;;;29.95;;
64157;SDS011;50449;51.528;5.076;2022-10-17T06:35:42;31.75;;;29.33;;
64157;SDS011;50449;51.528;5.076;2022-10-17T06:38:07;31.52;;;29.15;;
64157;SDS011;50449;51.528;5.076;2022-10-17T06:40:33;30.88;;;29.08;;
64157;SDS011;50449;51.528;5.076;2022-10-17T06:42:58;31.70;;;29.40;;
64157;SDS011;50449;51.528;5.076;2022-10-17T06:45:23;32.83;;;30.15;;
64157;SDS011;50449;51.528;5.076;2022-10-17T06:47:49;32.75;;;30.33;;
64157;SDS011;50449;51.528;5.076;2022-10-17T06:50:14;31.95;;;29.63;;
64157;SDS011;50449;51.528;5.076;2022-10-17T06:52:40;29.52;;;27.70;;
64157;SDS011;50449;51.528;5.076;2022-10-17T06:55:05;28.63;;;26.92;;
64157;SDS011;50449;51.528;5.076;2022-10-17T06:57:31;32.38;;;29.77;;
64157;SDS011;50449;51.528;5.076;2022-10-17T06:59:56;30.85;;;28.95;;
64157;SDS011;50449;51.528;5.076;2022-10-17T07:02:21;31.60;;;29.67;;
64157;SDS011;50449;51.528;5.076;2022-10-17T07:04:48;30.90;;;28.55;;
64157;SDS011;50449;51.528;5.076;2022-10-17T07:07:14;34.00;;;31.30;;
64157;SDS011;50449;51.528;5.076;2022-10-17T07:09:40;30.20;;;28.23;;
64157;SDS011;50449;51.528;5.076;2022-10-17T07:12:05;31.60;;;29.30;;
64157;SDS011;50449;51.528;5.076;2022-10-17T07:14:32;30.33;;;28.30;;
64157;SDS011;50449;51.528;5.076;2022-10-17T07:16:58;31.63;;;29.30;;
64157;SDS011;50449;51.528;5.076;2022-10-17T07:19:24;33.45;;;31.35;;
64157;SDS011;50449;51.528;5.076;2022-10-17T07:21:51;32.28;;;30.13;;
64157;SDS011;50449;51.528;5.076;2022-10-17T07:24:16;31.55;;;29.40;;
64157;SDS011;50449;51.528;5.076;2022-10-17T07:26:41;30.92;;;28.70;;
64157;SDS011;50449;51.528;5.076;2022-10-17T07:29:08;30.30;;;28.27;;
64157;SDS011;50449;51.528;5.076;2022-10-17T07:31:33;33.58;;;30.63;;
64157;SDS011;50449;51.528;5.076;2022-10-17T07:33:59;32.25;;;30.08;;
64157;SDS011;50449;51.528;5.076;2022-10-17T07:36:24;36.22;;;30.70;;
64157;SDS011;50449;51.528;5.076;2022-10-17T07:38:50;30.10;;;28.50;;
64157;SDS011;50449;51.528;5.076;2022-10-17T07:41:15;32.42;;;30.30;;
64157;SDS011;50449;51.528;5.076;2022-10-17T07:43:41;30.95;;;28.80;;
64157;SDS011;50449;51.528;5.076;2022-10-17T07:46:07;32.42;;;30.17;;
64157;SDS011;50449;51.528;5.076;2022-10-17T07:48:33;31.92;;;30.02;;
64157;SDS011;50449;51.528;5.076;2022-10-17T07:51:02;30.50;;;28.35;;
64157;SDS011;50449;51.528;5.076;2022-10-17T07:53:29;33.65;;;30.60;;
64157;SDS011;50449;51.528;5.076;2022-10-17T07:55:54;32.70;;;30.52;;
64157;SDS011;50449;51.528;5.076;2022-10-17T07:58:20;34.75;;;32.55;;
64157;SDS011;50449;51.528;5.076;2022-10-17T08:00:45;33.28;;;30.70;;
64157;SDS011;50449;51.528;5.076;2022-10-17T08:03:14;33.33;;;30.73;;
64157;SDS011;50449;51.528;5.076;2022-10-17T08:05:40;32.42;;;30.38;;
64157;SDS011;50449;51.528;5.076;2022-10-17T08:08:05;30.70;;;28.85;;
64157;SDS011;50449;51.528;5.076;2022-10-17T08:10:31;30.45;;;28.63;;
64157;SDS011;50449;51.528;5.076;2022-10-17T08:12:56;31.83;;;29.80;;
64157;SDS011;50449;51.528;5.076;2022-10-17T08:15:23;33.00;;;30.90;;
64157;SDS011;50449;51.528;5.076;2022-10-17T08:17:50;32.35;;;29.90;;
64157;SDS011;50449;51.528;5.076;2022-10-17T08:20:15;30.42;;;27.23;;
64157;SDS011;50449;51.528;5.076;2022-10-17T08:22:41;30.45;;;28.58;;
64157;SDS011;50449;51.528;5.076;2022-10-17T08:25:07;32.10;;;29.80;;
64157;SDS011;50449;51.528;5.076;2022-10-17T08:27:33;34.08;;;32.08;;
64157;SDS011;50449;51.528;5.076;2022-10-17T08:29:59;31.40;;;29.45;;
64157;SDS011;50449;51.528;5.076;2022-10-17T08:32:25;34.03;;;31.27;;
64157;SDS011;50449;51.528;5.076;2022-10-17T08:34:52;31.90;;;29.85;;
64157;SDS011;50449;51.528;5.076;2022-10-17T08:37:20;33.45;;;30.48;;
64157;SDS011;50449;51.528;5.076;2022-10-17T08:39:46;34.80;;;32.05;;
64157;SDS011;50449;51.528;5.076;2022-10-17T08:45:14;31.75;;;29.45;;
64157;SDS011;50449;51.528;5.076;2022-10-17T08:47:45;30.73;;;28.73;;
64157;SDS011;50449;51.528;5.076;2022-10-17T08:50:26;32.47;;;30.20;;
64157;SDS011;50449;51.528;5.076;2022-10-17T08:52:54;31.50;;;29.70;;
64157;SDS011;50449;51.528;5.076;2022-10-17T08:55:35;33.63;;;31.33;;
64157;SDS011;50449;51.528;5.076;2022-10-17T08:58:08;33.30;;;30.85;;
64157;SDS011;50449;51.528;5.076;2022-10-17T09:00:37;32.50;;;30.50;;
64157;SDS011;50449;51.528;5.076;2022-10-17T09:05:46;31.30;;;29.33;;
64157;SDS011;50449;51.528;5.076;2022-10-17T09:08:33;31.40;;;29.45;;
64157;SDS011;50449;51.528;5.076;2022-10-17T09:14:45;32.47;;;30.30;;
64157;SDS011;50449;51.528;5.076;2022-10-17T09:19:41;34.17;;;32.05;;
64157;SDS011;50449;51.528;5.076;2022-10-17T09:22:14;32.45;;;30.45;;
64157;SDS011;50449;51.528;5.076;2022-10-17T09:24:50;34.15;;;31.52;;
64157;SDS011;50449;51.528;5.076;2022-10-17T09:27:36;31.35;;;29.25;;
64157;SDS011;50449;51.528;5.076;2022-10-17T09:32:56;31.42;;;29.23;;
64157;SDS011;50449;51.528;5.076;2022-10-17T09:35:21;31.55;;;29.45;;
64157;SDS011;50449;51.528;5.076;2022-10-17T09:37:48;33.05;;;30.85;;
64157;SDS011;50449;51.528;5.076;2022-10-17T09:40:17;31.58;;;29.30;;
64157;SDS011;50449;51.528;5.076;2022-10-17T09:42:46;32.63;;;30.42;;
64157;SDS011;50449;51.528;5.076;2022-10-17T09:45:18;32.70;;;30.65;;
64157;SDS011;50449;51.528;5.076;2022-10-17T09:50:37;33.63;;;31.33;;
64157;SDS011;50449;51.528;5.076;2022-10-17T09:56:06;30.88;;;29.08;;
64157;SDS011;50449;51.528;5.076;2022-10-17T09:58:39;34.00;;;31.50;;
64157;SDS011;50449;51.528;5.076;2022-10-17T10:01:19;31.60;;;29.65;;
64157;SDS011;50449;51.528;5.076;2022-10-17T10:03:46;32.78;;;30.27;;
64157;SDS011;50449;51.528;5.076;2022-10-17T10:06:17;33.42;;;31.17;;
64157;SDS011;50449;51.528;5.076;2022-10-17T10:11:13;31.52;;;29.52;;
64157;SDS011;50449;51.528;5.076;2022-10-17T10:13:39;35.58;;;33.15;;
64157;SDS011;50449;51.528;5.076;2022-10-17T10:16:39;32.58;;;30.20;;
64157;SDS011;50449;51.528;5.076;2022-10-17T10:18:57;33.17;;;30.77;;
64157;SDS011;50449;51.528;5.076;2022-10-17T10:21:24;34.40;;;31.90;;
64157;SDS011;50449;51.528;5.076;2022-10-17T10:26:37;33.47;;;31.38;;
64157;SDS011;50449;51.528;5.076;2022-10-17T10:29:27;34.45;;;31.83;;
64157;SDS011;50449;51.528;5.076;2022-10-17T10:34:52;33.58;;;31.58;;
64157;SDS011;50449;51.528;5.076;2022-10-17T10:37:52;32.35;;;30.25;;
64157;SDS011;50449;51.528;5.076;2022-10-17T10:40:20;33.03;;;30.70;;
64157;SDS011;50449;51.528;5.076;2022-10-17T10:42:48;36.35;;;33.47;;
64157;SDS011;50449;51.528;5.076;2022-10-17T10:45:20;33.00;;;30.92;;
64157;SDS011;50449;51.528;5.076;2022-10-17T10:50:42;33.25;;;30.85;;
64157;SDS011;50449;51.528;5.076;2022-10-17T10:55:59;33.15;;;31.08;;
64157;SDS011;50449;51.528;5.076;2022-10-17T11:04:16;32.28;;;29.65;;
64157;SDS011;50449;51.528;5.076;2022-10-17T11:07:10;32.25;;;30.30;;
64157;SDS011;50449;51.528;5.076;2022-10-17T11:15:28;35.13;;;32.38;;
64157;SDS011;50449;51.528;5.076;2022-10-17T11:18:02;33.13;;;31.15;;
64157;SDS011;50449;51.528;5.076;2022-10-17T11:26:05;34.10;;;31.88;;
64157;SDS011;50449;51.528;5.076;2022-10-17T11:28:36;35.63;;;33.28;;
64157;SDS011;50449;51.528;5.076;2022-10-17T11:31:06;36.83;;;34.33;;
64157;SDS011;50449;51.528;5.076;2022-10-17T11:33:49;36.15;;;33.55;;
64157;SDS011;50449;51.528;5.076;2022-10-17T11:36:21;34.47;;;32.05;;
64157;SDS011;50449;51.528;5.076;2022-10-17T11:38:54;36.58;;;34.13;;
64157;SDS011;50449;51.528;5.076;2022-10-17T11:41:30;35.28;;;32.95;;
64157;SDS011;50449;51.528;5.076;2022-10-17T11:44:35;36.42;;;33.72;;
64157;SDS011;50449;51.528;5.076;2022-10-17T11:47:44;36.25;;;33.55;;
64157;SDS011;50449;51.528;5.076;2022-10-17T11:50:27;35.47;;;33.17;;
64157;SDS011;50449;51.528;5.076;2022-10-17T11:53:00;33.65;;;31.50;;
64157;SDS011;50449;51.528;5.076;2022-10-17T11:55:32;38.72;;;35.67;;
64157;SDS011;50449;51.528;5.076;2022-10-17T12:00:53;36.72;;;34.20;;
64157;SDS011;50449;51.528;5.076;2022-10-17T12:11:53;36.65;;;34.20;;
64157;SDS011;50449;51.528;5.076;2022-10-17T12:16:58;39.67;;;36.50;;
64157;SDS011;50449;51.528;5.076;2022-10-17T12:19:25;41.92;;;37.92;;
64157;SDS011;50449;51.528;5.076;2022-10-17T12:24:29;39.08;;;36.17;;
64157;SDS011;50449;51.528;5.076;2022-10-17T12:27:20;38.38;;;35.60;;
64157;SDS011;50449;51.528;5.076;2022-10-17T12:29:59;36.78;;;34.28;;
64157;SDS011;50449;51.528;5.076;2022-10-17T12:32:28;40.58;;;37.15;;
64157;SDS011;50449;51.528;5.076;2022-10-17T12:34:55;41.58;;;37.78;;
64157;SDS011;50449;51.528;5.076;2022-10-17T12:37:42;39.88;;;36.63;;
64157;SDS011;50449;51.528;5.076;2022-10-17T12:45:53;39.15;;;36.45;;
64157;SDS011;50449;51.528;5.076;2022-10-17T12:51:06;38.20;;;35.60;;
64157;SDS011;50449;51.528;5.076;2022-10-17T12:53:55;38.92;;;36.00;;
64157;SDS011;50449;51.528;5.076;2022-10-17T12:59:00;38.63;;;35.92;;
64157;SDS011;50449;51.528;5.076;2022-10-17T13:01:32;39.17;;;36.40;;
64157;SDS011;50449;51.528;5.076;2022-10-17T13:04:00;40.15;;;37.33;;
64157;SDS011;50449;51.528;5.076;2022-10-17T13:06:30;35.45;;;33.10;;
64157;SDS011;50449;51.528;5.076;2022-10-17T13:09:14;41.08;;;37.13;;
64157;SDS011;50449;51.528;5.076;2022-10-17T13:11:44;39.67;;;36.58;;
64157;SDS011;50449;51.528;5.076;2022-10-17T13:14:12;40.20;;;37.40;;
64157;SDS011;50449;51.528;5.076;2022-10-17T13:16:49;36.30;;;33.95;;
64157;SDS011;50449;51.528;5.076;2022-10-17T13:19:23;38.80;;;35.78;;
64157;SDS011;50449;51.528;5.076;2022-10-17T13:22:11;37.83;;;35.40;;
64157;SDS011;50449;51.528;5.076;2022-10-17T13:24:42;38.88;;;35.97;;
64157;SDS011;50449;51.528;5.076;2022-10-17T13:27:21;38.88;;;36.35;;
64157;SDS011;50449;51.528;5.076;2022-10-17T13:29:55;40.78;;;37.63;;
64157;SDS011;50449;51.528;5.076;2022-10-17T13:32:23;35.30;;;32.67;;
64157;SDS011;50449;51.528;5.076;2022-10-17T13:35:06;39.13;;;36.43;;
64157;SDS011;50449;51.528;5.076;2022-10-17T13:37:35;38.95;;;36.35;;
64157;SDS011;50449;51.528;5.076;2022-10-17T13:40:04;41.53;;;38.45;;
64157;SDS011;50449;51.528;5.076;2022-10-17T13:42:35;38.35;;;35.75;;
64157;SDS011;50449;51.528;5.076;2022-10-17T13:45:03;38.55;;;35.80;;
64157;SDS011;50449;51.528;5.076;2022-10-17T13:50:07;38.03;;;35.13;;
64157;SDS011;50449;51.528;5.076;2022-10-17T13:52:44;35.40;;;33.10;;
64157;SDS011;50449;51.528;5.076;2022-10-17T13:55:13;36.08;;;33.50;;
64157;SDS011;50449;51.528;5.076;2022-10-17T13:57:40;36.45;;;33.75;;
64157;SDS011;50449;51.528;5.076;2022-10-17T14:00:06;35.92;;;33.72;;
64157;SDS011;50449;51.528;5.076;2022-10-17T14:02:46;36.40;;;33.67;;
64157;SDS011;50449;51.528;5.076;2022-10-17T14:05:16;34.45;;;32.13;;
64157;SDS011;50449;51.528;5.076;2022-10-17T14:10:18;36.65;;;33.55;;
64157;SDS011;50449;51.528;5.076;2022-10-17T14:13:05;37.97;;;35.42;;
64157;SDS011;50449;51.528;5.076;2022-10-17T14:15:35;41.10;;;37.78;;
64157;SDS011;50449;51.528;5.076;2022-10-17T14:18:02;36.30;;;33.80;;
64157;SDS011;50449;51.528;5.076;2022-10-17T14:20:29;37.20;;;34.92;;
64157;SDS011;50449;51.528;5.076;2022-10-17T14:22:56;35.85;;;33.65;;
64157;SDS011;50449;51.528;5.076;2022-10-17T14:25:29;36.38;;;33.80;;
64157;SDS011;50449;51.528;5.076;2022-10-17T14:27:56;38.28;;;35.97;;
64157;SDS011;50449;51.528;5.076;2022-10-17T14:33:16;39.10;;;36.15;;
64157;SDS011;50449;51.528;5.076;2022-10-17T14:35:50;38.22;;;35.63;;
64157;SDS011;50449;51.528;5.076;2022-10-17T14:38:17;38.25;;;35.47;;
64157;SDS011;50449;51.528;5.076;2022-10-17T14:40:50;41.17;;;38.38;;
64157;SDS011;50449;51.528;5.076;2022-10-17T14:43:28;38.15;;;35.10;;
64157;SDS011;50449;51.528;5.076;2022-10-17T14:45:56;39.22;;;36.28;;
64157;SDS011;50449;51.528;5.076;2022-10-17T14:48:23;36.83;;;33.67;;
64157;SDS011;50449;51.528;5.076;2022-10-17T14:51:06;37.95;;;35.55;;
64157;SDS011;50449;51.528;5.076;2022-10-17T14:53:35;40.28;;;37.45;;
64157;SDS011;50449;51.528;5.076;2022-10-17T14:56:02;41.22;;;38.13;;
64157;SDS011;50449;51.528;5.076;2022-10-17T14:58:31;40.65;;;37.15;;
64157;SDS011;50449;51.528;5.076;2022-10-17T15:00:57;40.15;;;37.30;;
64157;SDS011;50449;51.528;5.076;2022-10-17T15:03:24;41.65;;;38.38;;
64157;SDS011;50449;51.528;5.076;2022-10-17T15:05:50;41.10;;;37.67;;
64157;SDS011;50449;51.528;5.076;2022-10-17T15:08:17;45.25;;;41.20;;
64157;SDS011;50449;51.528;5.076;2022-10-17T15:10:45;44.97;;;41.20;;
64157;SDS011;50449;51.528;5.076;2022-10-17T15:13:11;43.40;;;40.17;;
64157;SDS011;50449;51.528;5.076;2022-10-17T15:15:37;45.00;;;40.78;;
64157;SDS011;50449;51.528;5.076;2022-10-17T15:18:04;43.72;;;40.10;;
64157;SDS011;50449;51.528;5.076;2022-10-17T15:20:30;42.92;;;38.55;;
64157;SDS011;50449;51.528;5.076;2022-10-17T15:22:58;42.22;;;38.92;;
64157;SDS011;50449;51.528;5.076;2022-10-17T15:25:24;42.00;;;38.63;;
64157;SDS011;50449;51.528;5.076;2022-10-17T15:27:51;42.42;;;39.03;;
64157;SDS011;50449;51.528;5.076;2022-10-17T15:30:18;41.50;;;38.15;;
64157;SDS011;50449;51.528;5.076;2022-10-17T15:32:46;41.95;;;38.90;;
64157;SDS011;50449;51.528;5.076;2022-10-17T15:35:12;42.03;;;38.42;;
64157;SDS011;50449;51.528;5.076;2022-10-17T15:37:38;40.50;;;37.35;;
64157;SDS011;50449;51.528;5.076;2022-10-17T15:40:04;40.60;;;37.55;;
64157;SDS011;50449;51.528;5.076;2022-10-17T15:42:30;44.95;;;41.22;;
64157;SDS011;50449;51.528;5.076;2022-10-17T15:44:56;39.22;;;36.22;;
64157;SDS011;50449;51.528;5.076;2022-10-17T15:49:57;40.00;;;37.08;;
64157;SDS011;50449;51.528;5.076;2022-10-17T15:52:23;38.35;;;35.55;;
64157;SDS011;50449;51.528;5.076;2022-10-17T15:54:49;38.28;;;35.53;;
64157;SDS011;50449;51.528;5.076;2022-10-17T15:57:16;41.03;;;38.15;;
64157;SDS011;50449;51.528;5.076;2022-10-17T15:59:44;40.17;;;36.78;;
64157;SDS011;50449;51.528;5.076;2022-10-17T16:02:13;40.47;;;37.58;;
64157;SDS011;50449;51.528;5.076;2022-10-17T16:04:41;37.85;;;34.85;;
64157;SDS011;50449;51.528;5.076;2022-10-17T16:07:06;39.55;;;36.38;;
64157;SDS011;50449;51.528;5.076;2022-10-17T16:09:32;42.70;;;39.33;;
64157;SDS011;50449;51.528;5.076;2022-10-17T16:11:59;39.83;;;36.92;;
64157;SDS011;50449;51.528;5.076;2022-10-17T16:14:25;40.08;;;36.85;;
64157;SDS011;50449;51.528;5.076;2022-10-17T16:16:51;40.72;;;37.67;;
64157;SDS011;50449;51.528;5.076;2022-10-17T16:19:16;42.20;;;38.45;;
64157;SDS011;50449;51.528;5.076;2022-10-17T16:21:42;40.95;;;37.58;;
64157;SDS011;50449;51.528;5.076;2022-10-17T16:24:10;42.55;;;39.22;;
64157;SDS011;50449;51.528;5.076;2022-10-17T16:26:37;44.88;;;41.17;;
64157;SDS011;50449;51.528;5.076;2022-10-17T16:29:03;45.42;;;41.22;;
64157;SDS011;50449;51.528;5.076;2022-10-17T16:31:29;45.50;;;41.92;;
64157;SDS011;50449;51.528;5.076;2022-10-17T16:33:57;42.03;;;38.28;;
64157;SDS011;50449;51.528;5.076;2022-10-17T16:36:23;46.67;;;42.40;;
64157;SDS011;50449;51.528;5.076;2022-10-17T16:38:49;46.67;;;42.35;;
64157;SDS011;50449;51.528;5.076;2022-10-17T16:41:19;46.13;;;41.97;;
64157;SDS011;50449;51.528;5.076;2022-10-17T16:43:49;44.40;;;40.80;;